Time;durP1;ratioP1;P1;durP2;ratioP2;P2;SDS_P1;SDS_P2;PMS_P1;PMS_P2;Temp;Humidity;BMP_temperature;BMP_pressure;BME280_temperature;BME280_humidity;BME280_pressure;Samples;Min_cycle;Max_cycle;Signal;HPM_P1;HPM_P2
2023/09/21 00:03:06;;;;;;;0.50;0.50;;;;;;;;;;10312740;28;20278;-78
2023/09/21 00:08:07;;;;;;;1.90;0.60;;;;;;;;;;10330568;28;20280;-79
2023/09/21 00:13:09;;;;;;;1.20;0.55;;;;;;;;;;10319168;28;20205;-78
2023/09/21 00:18:10;;;;;;;1.65;0.70;;;;;;;;;;10333216;28;20737;-78
2023/09/21 00:23:11;;;;;;;0.70;0.70;;;;;;;;;;10311252;28;20230;-78
2023/09/21 00:28:12;;;;;;;2.10;0.52;;;;;;;;;;10318889;28;20212;-77
2023/09/21 00:33:13;;;;;;;0.95;0.73;;;;;;;;;;10320088;28;20211;-78
2023/09/21 00:38:14;;;;;;;1.45;0.68;;;;;;;;;;10322969;28;20223;-78
2023/09/21 00:43:27;;;;;;;1.27;1.10;;;;;;;;;;10295039;28;20233;-78
2023/09/21 00:48:33;;;;;;;0.85;0.85;;;;;;;;;;10305995;28;20749;-78
2023/09/21 00:53:35;;;;;;;2.78;1.08;;;;;;;;;;10324230;28;20225;-78
2023/09/21 00:58:48;;;;;;;3.10;0.90;;;;;;;;;;10314975;28;20216;-78
2023/09/21 01:03:50;;;;;;;1.05;0.85;;;;;;;;;;10322301;28;20212;-78
2023/09/21 01:08:52;;;;;;;1.35;0.93;;;;;;;;;;10310930;28;20338;-77
2023/09/21 01:13:53;;;;;;;2.67;0.68;;;;;;;;;;10323281;28;20224;-78
2023/09/21 01:18:54;;;;;;;3.70;0.90;;;;;;;;;;10308602;28;20295;-78
2023/09/21 01:23:56;;;;;;;7.47;1.45;;;;;;;;;;10320737;28;20247;-79
2023/09/21 01:28:58;;;;;;;1.85;1.17;;;;;;;;;;10342596;28;20236;-78
2023/09/21 01:34:00;;;;;;;1.02;1.02;;;;;;;;;;10301206;28;20666;-78
2023/09/21 01:39:02;;;;;;;1.00;1.00;;;;;;;;;;10297670;28;20216;-77
2023/09/21 01:44:03;;;;;;;0.90;0.90;;;;;;;;;;10310138;28;20215;-78
2023/09/21 01:49:05;;;;;;;1.95;1.00;;;;;;;;;;10306565;28;20216;-78
2023/09/21 01:54:07;;;;;;;1.13;1.00;;;;;;;;;;10297405;28;20762;-78
2023/09/21 01:59:08;;;;;;;1.42;0.95;;;;;;;;;;10325412;28;20308;-78
2023/09/21 02:04:09;;;;;;;6.00;1.20;;;;;;;;;;10298384;28;20221;-78
2023/09/21 02:09:14;;;;;;;4.05;0.77;;;;;;;;;;10303757;28;20302;-78
2023/09/21 02:14:15;;;;;;;3.30;1.50;;;;;;;;;;10323122;28;20217;-78
2023/09/21 02:19:16;;;;;;;1.25;1.17;;;;;;;;;;10308360;28;20244;-78
2023/09/21 02:24:18;;;;;;;1.45;1.33;;;;;;;;;;10310950;28;20327;-77
2023/09/21 02:29:19;;;;;;;1.13;1.00;;;;;;;;;;10312833;28;20667;-78
2023/09/21 02:34:20;;;;;;;1.52;1.40;;;;;;;;;;10314155;28;20227;-78
2023/09/21 02:39:21;;;;;;;3.33;1.25;;;;;;;;;;10319910;28;20676;-78
2023/09/21 02:44:24;;;;;;;1.08;1.08;;;;;;;;;;10316138;28;20208;-80
2023/09/21 02:49:25;;;;;;;2.42;1.08;;;;;;;;;;10322962;28;20847;-77
2023/09/21 02:54:28;;;;;;;1.65;1.02;;;;;;;;;;10295982;28;20585;-77
2023/09/21 02:59:29;;;;;;;1.40;0.82;;;;;;;;;;10287291;28;20234;-77
2023/09/21 03:04:33;;;;;;;1.60;1.60;;;;;;;;;;10303623;28;20566;-80
2023/09/21 03:09:37;;;;;;;2.28;2.10;;;;;;;;;;10316388;28;20323;-78
2023/09/21 03:14:38;;;;;;;1.70;1.58;;;;;;;;;;10308690;28;20204;-78
2023/09/21 03:19:39;;;;;;;2.13;1.52;;;;;;;;;;10313816;28;20305;-77
2023/09/21 03:24:40;;;;;;;1.40;1.17;;;;;;;;;;10300538;28;20243;-78
2023/09/21 03:29:42;;;;;;;2.50;1.30;;;;;;;;;;10319369;28;20251;-78
2023/09/21 03:34:43;;;;;;;2.88;1.33;;;;;;;;;;10295448;28;20219;-76
2023/09/21 03:39:44;;;;;;;1.80;1.70;;;;;;;;;;10316781;28;20227;-76
2023/09/21 03:44:45;;;;;;;2.05;1.45;;;;;;;;;;10292992;28;20868;-77
2023/09/21 03:49:46;;;;;;;1.48;1.45;;;;;;;;;;10328021;28;20219;-78
2023/09/21 03:54:47;;;;;;;1.58;1.58;;;;;;;;;;10301544;28;20276;-78
2023/09/21 03:59:48;;;;;;;1.73;1.63;;;;;;;;;;10325567;28;20307;-78
2023/09/21 04:04:50;;;;;;;1.42;1.33;;;;;;;;;;10321178;28;20710;-78
2023/09/21 04:09:52;;;;;;;1.90;1.80;;;;;;;;;;10299475;28;20271;-78
2023/09/21 04:14:53;;;;;;;2.95;1.70;;;;;;;;;;10296452;28;20312;-78
2023/09/21 04:19:54;;;;;;;1.77;1.67;;;;;;;;;;10273619;28;20656;-78
2023/09/21 04:24:55;;;;;;;1.52;1.45;;;;;;;;;;10287223;28;20221;-78
2023/09/21 04:29:56;;;;;;;3.05;2.08;;;;;;;;;;10295528;28;20224;-78
2023/09/21 04:34:58;;;;;;;6.35;2.47;;;;;;;;;;10310144;28;20220;-76
2023/09/21 04:39:59;;;;;;;5.20;2.38;;;;;;;;;;10287460;28;20263;-76
2023/09/21 04:45:01;;;;;;;2.33;2.13;;;;;;;;;;10280749;28;20240;-76
2023/09/21 04:50:02;;;;;;;2.95;2.75;;;;;;;;;;10302479;28;20296;-77
2023/09/21 04:55:04;;;;;;;2.05;1.98;;;;;;;;;;10312407;28;20193;-77
2023/09/21 05:00:07;;;;;;;2.15;2.05;;;;;;;;;;10299820;28;20221;-77
2023/09/21 05:05:08;;;;;;;2.35;1.73;;;;;;;;;;10306196;28;20200;-78
2023/09/21 05:10:12;;;;;;;2.20;2.10;;;;;;;;;;10304061;28;20702;-78
2023/09/21 05:15:15;;;;;;;3.45;2.00;;;;;;;;;;10286502;28;20196;-78
2023/09/21 05:20:16;;;;;;;1.85;1.83;;;;;;;;;;10298091;28;20939;-78
2023/09/21 05:25:18;;;;;;;4.20;2.75;;;;;;;;;;10289921;28;20185;-78
2023/09/21 05:30:19;;;;;;;3.78;2.90;;;;;;;;;;10308605;28;20217;-78
2023/09/21 05:35:23;;;;;;;2.45;2.35;;;;;;;;;;10301980;28;20280;-78
2023/09/21 05:40:24;;;;;;;3.20;3.00;;;;;;;;;;10281252;28;20224;-78
2023/09/21 05:45:25;;;;;;;3.65;2.95;;;;;;;;;;10299169;28;21481;-78
2023/09/21 05:50:26;;;;;;;3.88;3.20;;;;;;;;;;10312896;28;20220;-77
2023/09/21 05:55:28;;;;;;;3.03;2.80;;;;;;;;;;10302011;28;20221;-77
2023/09/21 06:00:29;;;;;;;3.45;3.25;;;;;;;;;;10297569;28;20221;-78
2023/09/21 06:05:30;;;;;;;3.33;3.13;;;;;;;;;;10297513;28;20311;-77
2023/09/21 06:10:32;;;;;;;3.75;3.10;;;;;;;;;;10294114;28;20319;-77
2023/09/21 06:15:33;;;;;;;3.60;3.35;;;;;;;;;;10279817;28;20216;-77
2023/09/21 06:20:35;;;;;;;5.47;3.30;;;;;;;;;;10307757;28;20233;-78
2023/09/21 06:25:36;;;;;;;5.03;3.70;;;;;;;;;;10265909;28;20209;-78
2023/09/21 06:30:37;;;;;;;4.45;3.80;;;;;;;;;;10295467;28;20311;-78
2023/09/21 06:35:38;;;;;;;3.13;3.03;;;;;;;;;;10292499;28;20201;-78
2023/09/21 06:40:39;;;;;;;3.15;3.05;;;;;;;;;;10307034;28;20221;-78
2023/09/21 06:45:41;;;;;;;3.90;2.95;;;;;;;;;;10299673;28;21399;-78
2023/09/21 06:50:42;;;;;;;3.38;3.00;;;;;;;;;;10302199;28;20995;-78
2023/09/21 06:55:43;;;;;;;3.30;3.00;;;;;;;;;;10291525;28;20228;-77
2023/09/21 07:00:45;;;;;;;3.45;3.10;;;;;;;;;;10302113;28;20255;-78
2023/09/21 07:05:49;;;;;;;4.45;2.63;;;;;;;;;;10287347;28;20228;-78
2023/09/21 07:10:51;;;;;;;2.63;2.47;;;;;;;;;;10271221;28;20945;-77
2023/09/21 07:15:54;;;;;;;5.55;2.63;;;;;;;;;;10301024;28;20224;-77
2023/09/21 07:20:55;;;;;;;2.47;2.38;;;;;;;;;;10288847;28;20220;-77
2023/09/21 07:25:57;;;;;;;2.70;2.55;;;;;;;;;;10277225;28;20839;-78
2023/09/21 07:30:58;;;;;;;2.50;2.30;;;;;;;;;;10301375;28;20255;-78
2023/09/21 07:35:59;;;;;;;1.85;1.85;;;;;;;;;;10289602;28;20758;-76
2023/09/21 07:41:02;;;;;;;2.20;2.00;;;;;;;;;;10272699;28;20220;-75
2023/09/21 07:46:03;;;;;;;2.13;2.00;;;;;;;;;;10294794;28;20232;-76
2023/09/21 07:51:06;;;;;;;2.40;2.20;;;;;;;;;;10295504;28;20270;-77
2023/09/21 07:56:12;;;;;;;3.45;2.25;;;;;;;;;;10306794;28;20216;-77
2023/09/21 08:01:13;;;;;;;2.58;2.38;;;;;;;;;;10317896;28;20212;-78
2023/09/21 08:06:14;;;;;;;2.08;1.98;;;;;;;;;;10295461;28;20313;-77
2023/09/21 08:11:15;;;;;;;2.45;1.70;;;;;;;;;;10307053;28;20683;-78
2023/09/21 08:16:16;;;;;;;2.03;1.92;;;;;;;;;;10305618;28;20205;-77
2023/09/21 08:21:17;;;;;;;4.78;2.00;;;;;;;;;;10291870;28;20220;-78
2023/09/21 08:26:18;;;;;;;2.85;1.40;;;;;;;;;;10310926;28;20286;-77
2023/09/21 08:31:22;;;;;;;4.63;1.58;;;;;;;;;;10310199;28;20275;-78
2023/09/21 08:36:23;;;;;;;1.88;1.73;;;;;;;;;;10296115;28;20904;-78
2023/09/21 08:41:26;;;;;;;4.05;1.58;;;;;;;;;;10310597;28;20221;-79
2023/09/21 08:46:27;;;;;;;1.75;1.65;;;;;;;;;;10306025;28;20215;-78
2023/09/21 08:51:31;;;;;;;1.48;1.48;;;;;;;;;;10292883;28;20221;-78
2023/09/21 08:56:33;;;;;;;1.90;1.40;;;;;;;;;;10284031;28;20583;-77
2023/09/21 09:01:34;;;;;;;1.48;1.48;;;;;;;;;;10297100;28;21444;-76
2023/09/21 09:06:35;;;;;;;1.00;1.00;;;;;;;;;;10277165;28;20233;-75
2023/09/21 09:11:40;;;;;;;1.08;1.05;;;;;;;;;;10300302;28;20375;-76
2023/09/21 09:16:41;;;;;;;1.58;1.20;;;;;;;;;;10297078;28;20220;-77
2023/09/21 09:21:44;;;;;;;1.30;1.30;;;;;;;;;;10297452;28;20220;-77
2023/09/21 09:26:45;;;;;;;0.85;0.85;;;;;;;;;;10295899;28;20243;-77
2023/09/21 09:31:47;;;;;;;1.00;1.00;;;;;;;;;;10294134;28;20232;-77
2023/09/21 09:36:52;;;;;;;3.00;0.70;;;;;;;;;;10290221;28;20224;-76
2023/09/21 09:41:53;;;;;;;2.20;1.00;;;;;;;;;;10321118;28;20635;-78
2023/09/21 09:46:58;;;;;;;1.38;0.80;;;;;;;;;;10302506;28;20219;-77
2023/09/21 09:52:00;;;;;;;0.98;0.98;;;;;;;;;;10292495;28;20691;-78
2023/09/21 09:57:01;;;;;;;0.85;0.80;;;;;;;;;;10302001;28;20220;-79
2023/09/21 10:02:06;;;;;;;0.80;0.70;;;;;;;;;;10287098;28;20220;-82
2023/09/21 10:07:08;;;;;;;0.73;0.70;;;;;;;;;;10314009;28;20244;-78
2023/09/21 10:12:11;;;;;;;3.65;0.73;;;;;;;;;;10315048;28;20224;-78
2023/09/21 10:17:14;;;;;;;1.85;0.63;;;;;;;;;;10307726;28;20212;-79
2023/09/21 10:22:22;;;;;;;0.70;0.70;;;;;;;;;;10313820;28;20750;-78
2023/09/21 10:27:27;;;;;;;0.50;0.50;;;;;;;;;;10313942;28;20212;-78
2023/09/21 10:32:41;;;;;;;0.88;0.60;;;;;;;;;;10307430;28;20307;-79
2023/09/21 10:37:42;;;;;;;1.50;0.68;;;;;;;;;;10352004;28;20594;-79
2023/09/21 10:42:43;;;;;;;0.60;0.60;;;;;;;;;;10330294;28;20790;-78
2023/09/21 10:47:48;;;;;;;0.50;0.50;;;;;;;;;;10302437;28;20687;-78
2023/09/21 10:52:51;;;;;;;0.60;0.60;;;;;;;;;;10314323;28;20228;-78
2023/09/21 10:57:53;;;;;;;1.20;0.60;;;;;;;;;;10326658;28;20212;-78
2023/09/21 11:02:55;;;;;;;0.75;0.75;;;;;;;;;;10289432;28;20217;-79
2023/09/21 11:07:56;;;;;;;0.50;0.50;;;;;;;;;;10302333;28;20243;-79
2023/09/21 11:12:57;;;;;;;0.52;0.52;;;;;;;;;;10300206;28;20228;-78
2023/09/21 11:17:59;;;;;;;0.50;0.50;;;;;;;;;;10299128;28;20221;-78
2023/09/21 11:23:02;;;;;;;0.45;0.45;;;;;;;;;;10294535;28;20231;-78
2023/09/21 11:28:03;;;;;;;0.40;0.40;;;;;;;;;;10285619;28;20331;-78
2023/09/21 11:33:04;;;;;;;1.08;0.50;;;;;;;;;;10290345;28;20659;-78
2023/09/21 11:38:05;;;;;;;1.65;0.40;;;;;;;;;;10285330;28;20212;-77
2023/09/21 11:43:10;;;;;;;0.45;0.45;;;;;;;;;;10299185;28;20915;-78
2023/09/21 11:48:12;;;;;;;0.50;0.50;;;;;;;;;;10310331;28;20216;-78
2023/09/21 11:53:13;;;;;;;0.50;0.50;;;;;;;;;;10299029;28;20227;-78
2023/09/21 11:58:15;;;;;;;0.50;0.40;;;;;;;;;;10302652;28;20207;-78
2023/09/21 12:03:17;;;;;;;0.32;0.32;;;;;;;;;;10299229;28;20260;-76
2023/09/21 12:08:21;;;;;;;0.40;0.40;;;;;;;;;;10266253;28;20236;-77
2023/09/21 12:13:23;;;;;;;0.45;0.45;;;;;;;;;;10306809;28;20224;-78
2023/09/21 12:18:26;;;;;;;0.40;0.40;;;;;;;;;;10303640;28;20307;-78
2023/09/21 12:23:28;;;;;;;0.40;0.40;;;;;;;;;;10300237;28;20256;-77
2023/09/21 12:28:29;;;;;;;1.75;0.30;;;;;;;;;;10289787;28;20698;-77
2023/09/21 12:33:31;;;;;;;0.40;0.40;;;;;;;;;;10295992;28;20216;-77
2023/09/21 12:38:33;;;;;;;0.63;0.50;;;;;;;;;;10302351;28;20253;-77
2023/09/21 12:43:34;;;;;;;0.38;0.38;;;;;;;;;;10306216;28;20339;-77
2023/09/21 12:48:38;;;;;;;2.80;0.70;;;;;;;;;;10298778;28;20230;-79
2023/09/21 12:53:39;;;;;;;0.40;0.40;;;;;;;;;;10307332;28;20244;-77
2023/09/21 12:58:40;;;;;;;1.10;0.43;;;;;;;;;;10312831;28;20228;-79
2023/09/21 13:03:41;;;;;;;0.40;0.40;;;;;;;;;;10294677;28;20239;-78
2023/09/21 13:08:43;;;;;;;0.63;0.50;;;;;;;;;;10295728;28;20239;-79
2023/09/21 13:13:44;;;;;;;3.00;0.50;;;;;;;;;;10301311;28;20452;-76
2023/09/21 13:18:45;;;;;;;1.48;0.50;;;;;;;;;;10293116;28;20213;-76
2023/09/21 13:23:48;;;;;;;0.40;0.40;;;;;;;;;;10311556;28;20752;-76
2023/09/21 13:28:49;;;;;;;0.50;0.50;;;;;;;;;;10303310;28;20694;-78
2023/09/21 13:33:50;;;;;;;0.70;0.50;;;;;;;;;;10300148;28;20275;-77
2023/09/21 13:38:51;;;;;;;0.40;0.40;;;;;;;;;;10282394;28;20224;-77
2023/09/21 13:43:52;;;;;;;0.50;0.50;;;;;;;;;;10302966;28;21019;-77
2023/09/21 13:48:53;;;;;;;0.40;0.40;;;;;;;;;;10292763;28;20224;-77
2023/09/21 13:53:54;;;;;;;0.68;0.40;;;;;;;;;;10297531;28;20220;-77
2023/09/21 13:58:56;;;;;;;0.30;0.30;;;;;;;;;;10292220;28;20739;-77
2023/09/21 14:03:59;;;;;;;0.75;0.40;;;;;;;;;;10298237;28;20216;-78
2023/09/21 14:09:01;;;;;;;0.40;0.40;;;;;;;;;;10302334;28;20818;-77
2023/09/21 14:14:06;;;;;;;1.35;0.30;;;;;;;;;;10293850;28;20219;-77
2023/09/21 14:19:07;;;;;;;0.90;0.38;;;;;;;;;;10290302;28;20820;-77
2023/09/21 14:24:09;;;;;;;2.05;0.38;;;;;;;;;;10296719;28;20215;-78
2023/09/21 14:29:10;;;;;;;0.40;0.40;;;;;;;;;;10287099;28;20308;-78
2023/09/21 14:34:11;;;;;;;0.40;0.40;;;;;;;;;;10296964;28;20205;-77
2023/09/21 14:39:12;;;;;;;0.40;0.40;;;;;;;;;;10309619;28;20274;-77
2023/09/21 14:44:13;;;;;;;0.25;0.25;;;;;;;;;;10302105;28;20200;-78
2023/09/21 14:49:14;;;;;;;0.50;0.50;;;;;;;;;;10303373;28;20221;-78
2023/09/21 14:54:16;;;;;;;0.30;0.30;;;;;;;;;;10302221;28;20208;-77
2023/09/21 14:59:17;;;;;;;0.30;0.30;;;;;;;;;;10307817;28;20343;-76
2023/09/21 15:04:19;;;;;;;0.80;0.47;;;;;;;;;;10294686;28;20216;-78
2023/09/21 15:09:20;;;;;;;0.40;0.40;;;;;;;;;;10282970;28;20930;-77
2023/09/21 15:14:21;;;;;;;0.30;0.30;;;;;;;;;;10300460;28;20238;-77
2023/09/21 15:19:25;;;;;;;0.30;0.30;;;;;;;;;;10300492;28;20255;-78
2023/09/21 15:24:26;;;;;;;0.30;0.30;;;;;;;;;;10291933;28;20465;-77
2023/09/21 15:29:28;;;;;;;0.30;0.30;;;;;;;;;;10272786;28;20213;-76
2023/09/21 15:34:29;;;;;;;2.22;0.40;;;;;;;;;;10285485;28;20209;-76
2023/09/21 15:39:30;;;;;;;0.32;0.32;;;;;;;;;;10270527;28;20287;-76
2023/09/21 15:44:31;;;;;;;1.00;0.47;;;;;;;;;;10297093;28;20290;-77
2023/09/21 15:49:32;;;;;;;0.45;0.45;;;;;;;;;;10302188;28;20240;-75
2023/09/21 15:54:34;;;;;;;3.03;0.40;;;;;;;;;;10289771;28;20287;-77
2023/09/21 15:59:36;;;;;;;1.55;0.50;;;;;;;;;;10299890;28;20216;-77
2023/09/21 16:04:39;;;;;;;0.50;0.40;;;;;;;;;;10288932;28;20216;-77
2023/09/21 16:09:40;;;;;;;0.40;0.40;;;;;;;;;;10286430;28;20229;-77
2023/09/21 16:14:41;;;;;;;0.40;0.40;;;;;;;;;;10290084;28;20220;-77
2023/09/21 16:19:42;;;;;;;3.72;1.33;;;;;;;;;;10289929;28;20217;-76
2023/09/21 16:24:43;;;;;;;0.70;0.40;;;;;;;;;;10294585;28;20247;-74
2023/09/21 16:29:46;;;;;;;0.70;0.70;;;;;;;;;;10309996;28;20410;-75
2023/09/21 16:34:48;;;;;;;0.43;0.40;;;;;;;;;;10278245;28;20694;-79
2023/09/21 16:39:50;;;;;;;1.30;0.70;;;;;;;;;;10283179;28;20229;-77
2023/09/21 16:44:52;;;;;;;0.80;0.80;;;;;;;;;;10294945;28;20741;-77
2023/09/21 16:49:54;;;;;;;1.77;0.70;;;;;;;;;;10309291;28;20328;-76
2023/09/21 16:54:56;;;;;;;0.70;0.70;;;;;;;;;;10299308;28;20248;-80
2023/09/21 16:59:57;;;;;;;0.70;0.70;;;;;;;;;;10301230;28;20590;-79
2023/09/21 17:04:58;;;;;;;0.98;0.98;;;;;;;;;;10288572;28;20240;-75
2023/09/21 17:09:59;;;;;;;1.08;1.00;;;;;;;;;;10281892;28;20315;-76
2023/09/21 17:15:01;;;;;;;0.82;0.82;;;;;;;;;;10299547;28;20208;-78
2023/09/21 17:20:02;;;;;;;0.80;0.80;;;;;;;;;;10271356;28;20216;-77
2023/09/21 17:25:04;;;;;;;0.85;0.80;;;;;;;;;;10297756;28;20246;-77
2023/09/21 17:30:06;;;;;;;2.28;0.95;;;;;;;;;;10301617;28;21168;-77
2023/09/21 17:35:08;;;;;;;0.80;0.80;;;;;;;;;;10305399;28;20569;-77
2023/09/21 17:40:12;;;;;;;1.70;0.90;;;;;;;;;;10268034;28;20201;-78
2023/09/21 17:45:13;;;;;;;3.90;1.15;;;;;;;;;;10285931;28;20188;-77
2023/09/21 17:50:16;;;;;;;1.30;1.20;;;;;;;;;;10279199;28;20216;-78
2023/09/21 17:55:17;;;;;;;4.20;1.05;;;;;;;;;;10274899;28;20259;-77
2023/09/21 18:00:19;;;;;;;5.97;1.20;;;;;;;;;;10294290;28;20417;-76
2023/09/21 18:05:20;;;;;;;4.18;1.10;;;;;;;;;;10290952;28;20189;-76
2023/09/21 18:10:21;;;;;;;7.88;1.55;;;;;;;;;;10288059;28;20224;-76
2023/09/21 18:15:22;;;;;;;2.03;1.92;;;;;;;;;;10286919;28;20277;-77
2023/09/21 18:20:26;;;;;;;2.45;1.58;;;;;;;;;;10296292;28;21089;-77
2023/09/21 18:25:27;;;;;;;4.10;1.63;;;;;;;;;;10288612;28;20216;-77
2023/09/21 18:30:28;;;;;;;1.27;0.90;;;;;;;;;;10285932;28;20229;-78
2023/09/21 18:35:29;;;;;;;2.38;1.00;;;;;;;;;;10300112;28;20248;-78
2023/09/21 18:40:30;;;;;;;1.15;1.05;;;;;;;;;;10279376;28;20576;-78
2023/09/21 18:45:32;;;;;;;2.30;1.10;;;;;;;;;;10307096;28;20216;-79
2023/09/21 18:50:33;;;;;;;1.50;1.40;;;;;;;;;;10314227;28;20223;-77
2023/09/21 18:55:34;;;;;;;1.77;1.73;;;;;;;;;;10282621;28;20208;-77
2023/09/21 19:00:37;;;;;;;1.65;1.65;;;;;;;;;;10304465;28;20610;-78
2023/09/21 19:05:38;;;;;;;3.55;2.30;;;;;;;;;;10303721;28;20978;-78
2023/09/21 19:10:39;;;;;;;2.90;2.08;;;;;;;;;;10293734;28;20235;-78
2023/09/21 19:15:40;;;;;;;2.00;1.90;;;;;;;;;;10308870;28;20254;-78
2023/09/21 19:20:41;;;;;;;2.65;2.33;;;;;;;;;;10323089;28;20223;-79
2023/09/21 19:25:42;;;;;;;2.55;2.35;;;;;;;;;;10304818;28;20259;-78
2023/09/21 19:30:45;;;;;;;2.65;2.45;;;;;;;;;;10288973;28;20355;-79
2023/09/21 19:35:47;;;;;;;2.30;2.20;;;;;;;;;;10304736;28;20228;-78
2023/09/21 19:40:49;;;;;;;2.70;2.58;;;;;;;;;;10299670;28;20225;-78
2023/09/21 19:45:50;;;;;;;3.13;2.85;;;;;;;;;;10280236;28;20303;-79
2023/09/21 19:50:52;;;;;;;3.05;2.90;;;;;;;;;;10293427;28;20223;-77
2023/09/21 19:55:54;;;;;;;3.00;2.80;;;;;;;;;;10271228;28;20208;-77
2023/09/21 20:00:56;;;;;;;3.10;2.80;;;;;;;;;;10278720;28;20228;-78
2023/09/21 20:05:57;;;;;;;3.53;3.22;;;;;;;;;;10291847;28;20289;-79
2023/09/21 20:10:59;;;;;;;3.10;2.90;;;;;;;;;;10323541;28;20776;-76
2023/09/21 20:16:01;;;;;;;3.10;2.80;;;;;;;;;;10310477;28;20227;-77
2023/09/21 20:21:02;;;;;;;3.20;2.90;;;;;;;;;;10318579;28;20328;-78
2023/09/21 20:26:04;;;;;;;2.88;2.67;;;;;;;;;;10320003;28;20256;-79
2023/09/21 20:31:05;;;;;;;3.05;2.95;;;;;;;;;;10307432;28;20228;-77
2023/09/21 20:36:07;;;;;;;2.90;2.72;;;;;;;;;;10317387;28;20271;-78
2023/09/21 20:41:08;;;;;;;2.90;2.80;;;;;;;;;;10320026;28;20216;-80
2023/09/21 20:46:09;;;;;;;3.03;2.85;;;;;;;;;;10316002;28;20233;-79
2023/09/21 20:51:10;;;;;;;4.00;3.63;;;;;;;;;;10316670;28;20713;-79
2023/09/21 20:56:11;;;;;;;3.75;3.55;;;;;;;;;;10335756;28;20216;-80
2023/09/21 21:01:12;;;;;;;3.67;3.40;;;;;;;;;;10334177;28;20247;-79
2023/09/21 21:06:14;;;;;;;4.18;3.67;;;;;;;;;;10321388;28;20827;-79
2023/09/21 21:11:17;;;;;;;3.80;3.60;;;;;;;;;;10276098;28;20227;-79
2023/09/21 21:16:18;;;;;;;4.18;3.63;;;;;;;;;;10274801;28;20308;-79
2023/09/21 21:21:19;;;;;;;4.53;4.10;;;;;;;;;;10254507;28;20312;-78
2023/09/21 21:26:20;;;;;;;4.30;3.90;;;;;;;;;;10272839;28;20241;-78
2023/09/21 21:31:21;;;;;;;6.53;4.30;;;;;;;;;;10260024;28;20753;-79
2023/09/21 21:36:22;;;;;;;4.78;4.30;;;;;;;;;;10257125;28;20221;-78
2023/09/21 21:41:23;;;;;;;4.15;3.90;;;;;;;;;;10257517;28;21558;-77
2023/09/21 21:46:24;;;;;;;4.03;3.72;;;;;;;;;;10264141;28;20239;-79
2023/09/21 21:51:25;;;;;;;4.45;4.18;;;;;;;;;;10288294;28;20234;-79
2023/09/21 21:56:26;;;;;;;3.85;3.72;;;;;;;;;;10272812;28;20209;-79
2023/09/21 22:01:27;;;;;;;4.80;4.47;;;;;;;;;;10257918;28;20226;-79
2023/09/21 22:06:28;;;;;;;8.57;4.70;;;;;;;;;;10274503;28;20298;-78
2023/09/21 22:11:29;;;;;;;6.10;4.95;;;;;;;;;;10312543;28;20220;-78
2023/09/21 22:16:30;;;;;;;4.78;4.47;;;;;;;;;;10303511;28;20220;-79
2023/09/21 22:21:31;;;;;;;4.97;4.53;;;;;;;;;;10301241;28;20765;-79
2023/09/21 22:26:33;;;;;;;6.05;4.78;;;;;;;;;;10302110;28;20274;-78
2023/09/21 22:31:34;;;;;;;4.63;4.43;;;;;;;;;;10309028;28;20256;-79
2023/09/21 22:36:35;;;;;;;5.05;4.65;;;;;;;;;;10278467;28;20221;-78
2023/09/21 22:41:36;;;;;;;4.45;4.18;;;;;;;;;;10303626;28;20220;-78
2023/09/21 22:46:37;;;;;;;6.10;5.03;;;;;;;;;;10276215;28;20209;-79
2023/09/21 22:51:38;;;;;;;10.18;4.88;;;;;;;;;;10283335;28;20656;-78
2023/09/21 22:56:39;;;;;;;5.47;5.00;;;;;;;;;;10305553;28;20219;-78
2023/09/21 23:01:41;;;;;;;5.53;5.10;;;;;;;;;;10310789;28;20213;-76
2023/09/21 23:06:42;;;;;;;5.13;4.82;;;;;;;;;;10295432;28;20298;-77
2023/09/21 23:11:44;;;;;;;2.85;1.60;;;;;;;;;;10288537;28;20216;-78
2023/09/21 23:16:45;;;;;;;1.15;0.70;;;;;;;;;;10326081;28;20227;-77
2023/09/21 23:21:46;;;;;;;0.52;0.52;;;;;;;;;;10325577;28;20220;-78
2023/09/21 23:26:47;;;;;;;1.05;0.77;;;;;;;;;;10294444;28;20208;-77
2023/09/21 23:31:50;;;;;;;1.25;0.60;;;;;;;;;;10318220;28;21224;-78
2023/09/21 23:36:51;;;;;;;0.88;0.88;;;;;;;;;;10310902;28;20331;-77
2023/09/21 23:41:52;;;;;;;0.90;0.90;;;;;;;;;;10312836;28;20213;-76
2023/09/21 23:46:53;;;;;;;2.40;0.70;;;;;;;;;;10308670;28;20220;-77
2023/09/21 23:51:54;;;;;;;2.58;0.90;;;;;;;;;;10299183;28;20220;-78
2023/09/21 23:56:56;;;;;;;0.73;0.73;;;;;;;;;;10338517;28;20371;-78
